Latest Coastal Weather Observations for Port Augusta

IDS60701

Issued at 9:51 pm CDT Saturday 13 February 2016 (issued every 10 minutes, with the page automatically refreshed every 10 minutes)

About coastal observations | Map of coastal stations | Coastal observations for SA | Marine services | Other Formats
Station Details ID: 018201 Name: PORT AUGUSTA AERO Lat: -32.51 Lon: 137.72 Height: 13.97 m
Data from the previous 72 hours. | See also: Recent months at Port Augusta
Date/Time
CDT
Temp

°C
Wind Pressure Rain
since 9am
mm
Weather Cloud Vis
km
Sea
Height
m
Swell
Dir
 
Speed
knots
Gust
knots
hPa Trend Height
m
Period
s
Dir
13/09:46pm 24.5 S 17 27 1012.5 - 0.0 - - 10 - - - -
13/09:30pm 24.0 SSW 19 26 1012.4 - 0.0 - - 10 - - - -
13/09:00pm 23.7 S 18 24 1012.2 - 0.0 - Partly cloudy 10 - - - -
13/08:30pm 23.5 SSE 19 26 1011.6 - 0.0 - - 10 - - - -
13/08:00pm 24.5 SE 21 28 1011.2 - 0.0 - - 10 - - - -
13/07:30pm 26.0 SSE 17 25 1010.7 - 0.0 - - 10 - - - -
13/07:00pm 27.8 SSE 22 29 1009.8 - 0.0 - - 10 - - - -
13/06:30pm 29.0 SE 23 30 1009.3 - 0.0 - - 10 - - - -
13/06:00pm 31.8 SSE 23 29 1009.0 - 0.0 - - 10 - - - -
13/05:30pm 33.5 SSE 24 30 1008.6 - 0.0 - - 10 - - - -
13/05:09pm 34.3 SE 18 28 1008.5 - 0.0 - - 10 - - - -
13/05:00pm 33.4 SE 19 25 1008.6 - 0.0 - - 10 - - - -
13/04:30pm 33.9 SE 19 26 1008.7 - 0.0 - - 10 - - - -
13/04:00pm 34.4 SE 19 25 1008.8 - 0.0 - - 10 - - - -
13/03:30pm 34.1 SE 17 23 1009.0 - 0.0 - - 10 - - - -
13/03:00pm 34.8 SE 18 23 1009.4 - 0.0 - - 10 - - - -
13/02:30pm 34.1 SE 17 23 1009.9 - 0.0 - - 10 - - - -
13/02:00pm 33.7 SE 17 23 1010.0 - 0.0 - - 10 - - - -
13/01:30pm 34.2 SE 15 20 1010.3 - 0.0 - - 10 - - - -
13/01:00pm 33.7 SE 15 19 1010.7 - 0.0 - - 10 - - - -
13/12:30pm 33.6 SE 14 20 1011.0 - 0.0 - - 10 - - - -
13/12:00pm 32.6 SE 12 16 1011.2 - 0.0 - - 10 - - - -
13/11:30am 30.5 SE 13 17 1011.5 - 0.0 - - 10 - - - -
13/11:00am 29.4 SE 13 18 1011.9 - 0.0 - - 10 - - - -
13/10:30am 27.0 SE 16 20 1011.9 - 0.0 - - 10 - - - -
13/10:00am 26.7 SE 12 16 1012.1 - 0.0 - - 10 - - - -
13/09:30am 26.2 SE 7 10 1012.1 - 0.0 - - 10 - - - -
13/09:00am 25.3 ESE 7 9 1012.2 - 0.0 - - 10 - - - -
13/08:30am 24.3 SE 5 7 1012.3 - 0.0 - - 10 - - - -
13/08:00am 20.8 SE 4 5 1012.0 - 0.0 - - 10 - - - -
13/07:30am 18.3 CALM 0 0 1011.6 - 0.0 - - 10 - - - -
13/07:00am 19.2 ESE 7 9 1011.4 - 0.0 - - 10 - - - -
13/06:30am 19.2 SE 6 7 1011.4 - 0.0 - - 10 - - - -
13/06:00am 19.8 SE 7 9 1011.1 - 0.0 - - 10 - - - -
13/05:30am 19.6 ESE 3 6 1011.0 - 0.0 - - 10 - - - -
13/05:00am 20.0 SSE 7 11 1011.0 - 0.0 - - 10 - - - -
13/04:30am 20.1 SSE 7 11 1010.8 - 0.0 - - 10 - - - -
13/04:00am 17.7 SSE 5 6 1010.6 - 0.0 - - 10 - - - -
13/03:30am 18.7 CALM 0 0 1010.7 - 0.0 - - 10 - - - -
13/03:00am 19.8 ESE 2 3 1010.9 - 0.0 - - 10 - - - -
13/02:30am 20.1 ESE 4 4 1011.0 - 0.0 - - 10 - - - -
13/02:00am 21.2 ESE 6 8 1011.4 - 0.0 - - 10 - - - -
13/01:30am 22.9 SE 7 9 1011.6 - 0.0 - - 10 - - - -
13/01:00am 23.9 SE 8 10 1011.8 - 0.0 - - 10 - - - -
13/12:30am 24.2 SSE 8 10 1012.0 - 0.0 - - 10 - - - -
13/12:00am 24.2 SE 8 13 1012.2 - 0.0 - - 10 - - - -
 
Date/Time
CDT
Temp

°C
Wind Pressure Rain
since 9am
mm
Weather Cloud Vis
km
Sea
Height
m
Swell
Dir
 
Speed
knots
Gust
knots
hPa Trend Height
m
Period
s
Dir
12/11:30pm 24.6 SE 7 10 1012.4 - 0.0 - - 10 - - - -
12/11:00pm 24.7 SSE 10 14 1012.5 - 0.0 - - 10 - - - -
12/10:30pm 23.6 SSE 11 16 1012.5 - 0.0 - - 10 - - - -
12/10:00pm 24.4 SE 14 19 1012.0 - 0.0 - - 10 - - - -
12/09:30pm 26.1 SE 11 13 1011.6 - 0.0 - - 10 - - - -
12/09:00pm 27.3 SSE 9 13 1011.1 - 0.0 - - 10 - - - -
12/08:30pm 28.6 SE 12 14 1010.6 - 0.0 - - 10 - - - -
12/08:00pm 29.5 SE 16 21 1010.2 - 0.0 - - 10 - - - -
12/07:30pm 30.2 SE 16 21 1009.9 - 0.0 - - 10 - - - -
12/07:00pm 31.0 SE 17 21 1009.8 - 0.0 - - 10 - - - -
12/06:30pm 33.0 SE 16 21 1009.7 - 0.0 - - 10 - - - -
12/06:00pm 33.2 SE 16 20 1009.7 - 0.0 - - 10 - - - -
12/05:30pm 33.3 SE 17 21 1009.7 - 0.0 - - 10 - - - -
12/05:00pm 33.4 SE 17 22 1009.8 - 0.0 - - 10 - - - -
12/04:30pm 34.2 SE 17 21 1009.8 - 0.0 - - 10 - - - -
12/04:00pm 33.1 SE 16 20 1009.9 - 0.0 - - 10 - - - -
12/03:30pm 32.6 SE 17 21 1010.1 - 0.0 - - 10 - - - -
12/03:00pm 32.3 SE 17 22 1010.5 - 0.0 - - 10 - - - -
12/02:30pm 31.8 SE 17 22 1010.9 - 0.0 - - 10 - - - -
12/02:00pm 31.5 SE 17 21 1011.3 - 0.0 - - 10 - - - -
12/01:30pm 31.1 SE 16 20 1011.7 - 0.0 - - 10 - - - -
12/01:00pm 30.4 SE 15 19 1012.0 - 0.0 - - 10 - - - -
12/12:30pm 29.6 SE 13 19 1012.5 - 0.0 - - 10 - - - -
12/12:00pm 29.3 SE 13 17 1012.9 - 0.0 - - 10 - - - -
12/11:30am 28.0 SE 14 17 1013.1 - 0.0 - - 10 - - - -
12/11:00am 27.4 SE 14 18 1013.4 - 0.0 - - 10 - - - -
12/10:30am 25.7 SE 15 20 1013.7 - 0.0 - - 10 - - - -
12/10:00am 26.0 SE 15 19 1013.8 - 0.0 - - 10 - - - -
12/09:30am 25.6 SE 13 16 1013.9 - 0.0 - - 10 - - - -
12/09:00am 24.5 SSE 13 16 1014.1 - 0.0 - - 10 - - - -
12/08:30am 23.2 SE 13 16 1014.1 - 0.0 - - 10 - - - -
12/08:00am 22.0 SE 13 17 1013.9 - 0.0 - - 10 - - - -
12/07:30am 20.6 SE 10 14 1013.7 - 0.0 - - 10 - - - -
12/07:00am 19.8 SE 11 14 1013.8 - 0.0 - - 10 - - - -
12/06:30am 19.6 SSE 9 12 1013.7 - 0.0 - - 10 - - - -
12/06:00am 19.8 SE 10 13 1013.6 - 0.0 - - 10 - - - -
12/05:30am 20.2 SSE 9 12 1013.1 - 0.0 - - 10 - - - -
12/05:00am 20.2 SSE 10 13 1012.9 - 0.0 - - 7 - - - -
12/04:30am 20.8 SSE 13 17 1012.9 - 0.0 - - 10 - - - -
12/04:00am 21.1 SSE 12 15 1012.9 - 0.0 - - 10 - - - -
12/03:30am 21.0 SSE 12 15 1013.0 - 0.0 - - 10 - - - -
12/03:00am 21.6 SSE 12 18 1013.2 - 0.0 - - 10 - - - -
12/02:30am 21.7 SSE 13 17 1013.4 - 0.0 - - 10 - - - -
12/02:00am 22.0 SSE 11 14 1013.9 - 0.0 - - 10 - - - -
12/01:30am 22.2 S 12 16 1014.0 - 0.0 - - 10 - - - -
12/01:00am 23.0 SSE 12 16 1014.3 - 0.0 - - 10 - - - -
12/12:30am 23.8 SSE 13 16 1014.4 - 0.0 - - 10 - - - -
12/12:00am 24.2 SSE 10 15 1014.5 - 0.0 - - 10 - - - -
 
Date/Time
CDT
Temp

°C
Wind Pressure Rain
since 9am
mm
Weather Cloud Vis
km
Sea
Height
m
Swell
Dir
 
Speed
knots
Gust
knots
hPa Trend Height
m
Period
s
Dir
11/11:30pm 24.1 SSW 7 10 1014.5 - 0.0 - - 10 - - - -
11/11:00pm 25.2 SSW 13 19 1014.3 - 0.0 - - 10 - - - -
11/10:30pm 25.3 SSW 11 15 1014.1 - 0.0 - - 10 - - - -
11/10:00pm 25.6 SSW 10 13 1013.7 - 0.0 - - 10 - - - -
11/09:30pm 26.1 S 6 10 1013.5 - 0.0 - - 10 - - - -
11/09:00pm 25.6 SE 8 11 1013.1 - 0.0 - - 10 - - - -
11/08:30pm 26.3 SE 12 16 1012.7 - 0.0 - - 10 - - - -
11/08:00pm 26.7 SE 12 21 1012.2 - 0.0 - - 10 - - - -
11/07:30pm 27.8 SE 16 21 1011.7 - 0.0 - - 10 - - - -
11/07:00pm 30.3 SE 14 20 1011.2 - 0.0 - - 10 - - - -
11/06:30pm 29.6 SE 17 23 1010.9 - 0.0 - - 10 - - - -
11/06:00pm 30.2 SE 17 25 1010.5 - 0.0 - - 10 - - - -
11/05:30pm 31.2 SE 16 23 1010.6 - 0.0 - - 10 - - - -
11/05:00pm 31.4 SE 19 26 1010.4 - 0.0 - - 10 - - - -
11/04:30pm 32.7 SE 18 24 1010.4 - 0.0 - - 10 - - - -
11/04:00pm 32.5 SE 18 25 1010.4 - 0.0 - - 10 - - - -
11/03:30pm 33.6 SE 17 22 1010.4 - 0.0 - - 10 - - - -
11/03:00pm 34.1 SE 17 22 1010.8 - 0.0 - - 10 - - - -
11/02:30pm 32.5 SE 16 20 1011.1 - 0.0 - - 10 - - - -
11/02:00pm 32.3 SE 15 19 1011.4 - 0.0 - - 10 - - - -
11/01:30pm 31.1 SE 15 20 1011.8 - 0.0 - - 10 - - - -
11/01:00pm 30.0 SE 15 21 1012.3 - 0.0 - - 10 - - - -
11/12:30pm 28.8 SE 15 19 1012.6 - 0.0 - - 10 - - - -
11/12:00pm 28.3 SE 16 21 1013.1 - 0.0 - - 10 - - - -
11/11:30am 26.5 SE 17 23 1013.2 - 0.0 - - 10 - - - -
11/11:00am 27.3 SSE 17 22 1013.5 - 0.0 - - 10 - - - -
11/10:30am 26.7 SSE 18 23 1013.5 - 0.0 - - 10 - - - -
11/10:00am 25.7 SSE 19 23 1013.8 - 0.0 - - 10 - - - -
11/09:30am 24.6 SSE 17 21 1013.8 - 0.0 - - 10 - - - -
11/09:00am 23.6 SSE 17 22 1013.9 - 0.0 - - 10 - - - -
11/08:30am 22.4 SSE 14 20 1014.1 - 0.0 - - 10 - - - -
11/08:00am 21.3 SSE 12 16 1013.9 - 0.0 - - 10 - - - -
11/07:30am 20.0 SSE 12 15 1013.8 - 0.0 - - 10 - - - -
11/07:00am 19.9 SSE 11 15 1013.7 - 0.0 - - 10 - - - -
11/06:30am 20.2 SSE 14 21 1013.2 - 0.0 - - 10 - - - -
11/06:00am 19.8 SSE 9 13 1013.0 - 0.0 - - 10 - - - -
11/05:30am 19.7 SSE 9 10 1012.8 - 0.0 - - 10 - - - -
11/05:00am 20.3 SSE 10 13 1012.6 - 0.0 - - 10 - - - -
11/04:30am 20.7 SSE 10 14 1012.5 - 0.0 - - 10 - - - -
11/04:00am 20.8 SSE 11 16 1012.5 - 0.0 - - 10 - - - -
11/03:30am 20.9 SSE 11 15 1012.4 - 0.0 - - 10 - - - -
11/03:00am 20.6 SSE 8 9 1012.6 - 0.0 - - 10 - - - -
11/02:30am 20.8 SSE 10 11 1012.7 - 0.0 - - 10 - - - -
11/02:00am 21.4 SE 9 11 1012.9 - 0.0 - - 10 - - - -
11/01:30am 22.0 SSE 9 11 1013.0 - 0.0 - - 10 - - - -
11/01:00am 22.7 SE 9 11 1013.1 - 0.0 - - 10 - - - -
11/12:30am 24.4 SSE 13 19 1013.2 - 0.0 - - 10 - - - -
11/12:00am 24.6 S 10 15 1013.2 - 0.0 - - 10 - - - -
 
Date/Time
CDT
Temp

°C
Wind Pressure Rain
since 9am
mm
Weather Cloud Vis
km
Sea
Height
m
Swell
Dir
 
Speed
knots
Gust
knots
hPa Trend Height
m
Period
s
Dir
10/11:30pm 23.9 SSW 10 13 1013.1 - 0.0 - - 10 - - - -
10/11:00pm 24.8 SSW 11 14 1013.2 - 0.0 - - 10 - - - -
10/10:30pm 25.8 S 12 17 1012.9 - 0.0 - - 10 - - - -
10/10:00pm 25.9 SSE 10 15 1012.7 - 0.0 - - 10 - - - -

Other Formats:

Comma delimited format used in spreadsheet applications
http://www.bom.gov.au/fwo/IDS60701/IDS60701.95666.axf

JavaScript Object Notation format (JSON) in row-major order
http://www.bom.gov.au/fwo/IDS60701/IDS60701.95666.json